
<gpx xmlns="http://www.topografix.com/GPX/1/1" xmlns:gpxx="http://www.garmin.com/xmlschemas/GpxExtensions/v3" xmlns:xsi="http://www.w3.org/2001/XMLSchema-instance" version="1.1" creator="Adze - http://kobotsw.com/apps/adze" xsi:schemaLocation="http://www.topografix.com/GPX/1/1 http://www.topografix.com/GPX/1/1/gpx.xsd http://www.garmin.com/xmlschemas/GpxExtensions/v3 http://www.garmin.com/xmlschemas/GpxExtensionsv3.xsd">
    <metadata>
        <name>Untitled Document</name>
        <link href="http://www.garmin.com"></link>
        <time>2018-02-26T07:13:29.910Z</time>
    </metadata>
    <trk>
        <name>Sunday</name>
        <extensions>
            <gpxx:TrackExtension xmlns:gpxx="http://www.garmin.com/xmlschemas/GpxExtensions/v3">
                <gpxx:DisplayColor>Green</gpxx:DisplayColor>
            </gpxx:TrackExtension>
        </extensions>
        <trkseg>
            <trkpt lon="99.497159" lat="14.356357">
                <ele>97.700000</ele>
                <time>2013-09-29T03:01:34Z</time>
            </trkpt>
            <trkpt lon="99.497175" lat="14.354559">
                <ele>96.300000</ele>
                <time>2013-09-29T03:02:46Z</time>
            </trkpt>
            <trkpt lon="99.497762" lat="14.354093">
                <ele>96.800000</ele>
                <time>2013-09-29T03:03:00Z</time>
            </trkpt>
            <trkpt lon="99.497986" lat="14.353638">
                <ele>95.800000</ele>
                <time>2013-09-29T03:03:08Z</time>
            </trkpt>
            <trkpt lon="99.497883" lat="14.353151">
                <ele>94.800000</ele>
                <time>2013-09-29T03:03:15Z</time>
            </trkpt>
            <trkpt lon="99.497544" lat="14.352642">
                <ele>95.300000</ele>
                <time>2013-09-29T03:03:24Z</time>
            </trkpt>
            <trkpt lon="99.497495" lat="14.352239">
                <ele>94.400000</ele>
                <time>2013-09-29T03:03:30Z</time>
            </trkpt>
            <trkpt lon="99.497867" lat="14.351679">
                <ele>94.800000</ele>
                <time>2013-09-29T03:03:40Z</time>
            </trkpt>
            <trkpt lon="99.498638" lat="14.351197">
                <ele>94.800000</ele>
                <time>2013-09-29T03:03:53Z</time>
            </trkpt>
            <trkpt lon="99.499137" lat="14.350373">
                <ele>94.800000</ele>
                <time>2013-09-29T03:04:06Z</time>
            </trkpt>
            <trkpt lon="99.499690" lat="14.350103">
                <ele>95.300000</ele>
                <time>2013-09-29T03:04:15Z</time>
            </trkpt>
            <trkpt lon="99.501265" lat="14.350434">
                <ele>95.300000</ele>
                <time>2013-09-29T03:04:37Z</time>
            </trkpt>
            <trkpt lon="99.502500" lat="14.351105">
                <ele>94.400000</ele>
                <time>2013-09-29T03:04:57Z</time>
            </trkpt>
            <trkpt lon="99.502717" lat="14.351314">
                <ele>94.400000</ele>
                <time>2013-09-29T03:05:01Z</time>
            </trkpt>
            <trkpt lon="99.503008" lat="14.352150">
                <ele>93.400000</ele>
                <time>2013-09-29T03:05:13Z</time>
            </trkpt>
            <trkpt lon="99.502984" lat="14.353161">
                <ele>93.900000</ele>
                <time>2013-09-29T03:05:27Z</time>
            </trkpt>
            <trkpt lon="99.503186" lat="14.353388">
                <ele>93.900000</ele>
                <time>2013-09-29T03:05:32Z</time>
            </trkpt>
            <trkpt lon="99.505377" lat="14.354112">
                <ele>94.400000</ele>
                <time>2013-09-29T03:06:04Z</time>
            </trkpt>
            <trkpt lon="99.505830" lat="14.353950">
                <ele>93.900000</ele>
                <time>2013-09-29T03:06:11Z</time>
            </trkpt>
            <trkpt lon="99.506376" lat="14.352973">
                <ele>93.900000</ele>
                <time>2013-09-29T03:06:26Z</time>
            </trkpt>
            <trkpt lon="99.506588" lat="14.352687">
                <ele>92.900000</ele>
                <time>2013-09-29T03:06:31Z</time>
            </trkpt>
            <trkpt lon="99.507036" lat="14.352528">
                <ele>93.900000</ele>
                <time>2013-09-29T03:06:38Z</time>
            </trkpt>
            <trkpt lon="99.507569" lat="14.352645">
                <ele>93.900000</ele>
                <time>2013-09-29T03:06:46Z</time>
            </trkpt>
            <trkpt lon="99.508740" lat="14.352293">
                <ele>93.900000</ele>
                <time>2013-09-29T03:07:08Z</time>
            </trkpt>
            <trkpt lon="99.508915" lat="14.351946">
                <ele>93.900000</ele>
                <time>2013-09-29T03:07:17Z</time>
            </trkpt>
            <trkpt lon="99.508624" lat="14.351252">
                <ele>95.300000</ele>
                <time>2013-09-29T03:07:30Z</time>
            </trkpt>
            <trkpt lon="99.508635" lat="14.350991">
                <ele>94.400000</ele>
                <time>2013-09-29T03:07:37Z</time>
            </trkpt>
            <trkpt lon="99.510057" lat="14.350419">
                <ele>98.200000</ele>
                <time>2013-09-29T03:08:09Z</time>
            </trkpt>
            <trkpt lon="99.509820" lat="14.349739">
                <ele>97.700000</ele>
                <time>2013-09-29T03:08:28Z</time>
            </trkpt>
            <trkpt lon="99.510231" lat="14.349579">
                <ele>99.200000</ele>
                <time>2013-09-29T03:08:38Z</time>
            </trkpt>
            <trkpt lon="99.510223" lat="14.349039">
                <ele>99.200000</ele>
                <time>2013-09-29T03:08:50Z</time>
            </trkpt>
            <trkpt lon="99.512517" lat="14.349078">
                <ele>108.300000</ele>
                <time>2013-09-29T03:09:57Z</time>
            </trkpt>
            <trkpt lon="99.512953" lat="14.348760">
                <ele>109.700000</ele>
                <time>2013-09-29T03:10:10Z</time>
            </trkpt>
            <trkpt lon="99.514288" lat="14.347686">
                <ele>106.400000</ele>
                <time>2013-09-29T03:10:39Z</time>
            </trkpt>
            <trkpt lon="99.514661" lat="14.347543">
                <ele>106.800000</ele>
                <time>2013-09-29T03:10:46Z</time>
            </trkpt>
            <trkpt lon="99.515936" lat="14.347308">
                <ele>108.300000</ele>
                <time>2013-09-29T03:11:09Z</time>
            </trkpt>
            <trkpt lon="99.517372" lat="14.347506">
                <ele>111.700000</ele>
                <time>2013-09-29T03:11:38Z</time>
            </trkpt>
            <trkpt lon="99.517902" lat="14.347654">
                <ele>111.700000</ele>
                <time>2013-09-29T03:11:47Z</time>
            </trkpt>
            <trkpt lon="99.518866" lat="14.347369">
                <ele>112.100000</ele>
                <time>2013-09-29T03:12:05Z</time>
            </trkpt>
            <trkpt lon="99.518836" lat="14.346573">
                <ele>109.700000</ele>
                <time>2013-09-29T03:12:18Z</time>
            </trkpt>
            <trkpt lon="99.519070" lat="14.346101">
                <ele>109.300000</ele>
                <time>2013-09-29T03:12:28Z</time>
            </trkpt>
            <trkpt lon="99.518846" lat="14.345338">
                <ele>108.800000</ele>
                <time>2013-09-29T03:12:46Z</time>
            </trkpt>
            <trkpt lon="99.517533" lat="14.344605">
                <ele>109.700000</ele>
                <time>2013-09-29T03:21:24Z</time>
            </trkpt>
            <trkpt lon="99.516865" lat="14.343835">
                <ele>110.700000</ele>
                <time>2013-09-29T03:21:42Z</time>
            </trkpt>
            <trkpt lon="99.516653" lat="14.343031">
                <ele>110.200000</ele>
                <time>2013-09-29T03:21:56Z</time>
            </trkpt>
            <trkpt lon="99.516196" lat="14.341995">
                <ele>108.300000</ele>
                <time>2013-09-29T03:22:12Z</time>
            </trkpt>
            <trkpt lon="99.516318" lat="14.340549">
                <ele>111.700000</ele>
                <time>2013-09-29T03:22:37Z</time>
            </trkpt>
            <trkpt lon="99.516286" lat="14.339676">
                <ele>112.600000</ele>
                <time>2013-09-29T03:22:53Z</time>
            </trkpt>
            <trkpt lon="99.516216" lat="14.338195">
                <ele>108.800000</ele>
                <time>2013-09-29T03:23:16Z</time>
            </trkpt>
            <trkpt lon="99.515548" lat="14.337292">
                <ele>106.400000</ele>
                <time>2013-09-29T03:23:32Z</time>
            </trkpt>
            <trkpt lon="99.515636" lat="14.337003">
                <ele>105.400000</ele>
                <time>2013-09-29T03:23:38Z</time>
            </trkpt>
            <trkpt lon="99.516584" lat="14.336816">
                <ele>106.400000</ele>
                <time>2013-09-29T03:23:51Z</time>
            </trkpt>
            <trkpt lon="99.516987" lat="14.336000">
                <ele>104.900000</ele>
                <time>2013-09-29T03:24:05Z</time>
            </trkpt>
            <trkpt lon="99.517350" lat="14.335798">
                <ele>105.400000</ele>
                <time>2013-09-29T03:24:11Z</time>
            </trkpt>
            <trkpt lon="99.518989" lat="14.335891">
                <ele>112.100000</ele>
                <time>2013-09-29T03:24:41Z</time>
            </trkpt>
            <trkpt lon="99.520993" lat="14.335686">
                <ele>110.700000</ele>
                <time>2013-09-29T03:25:16Z</time>
            </trkpt>
            <trkpt lon="99.522068" lat="14.335986">
                <ele>112.100000</ele>
                <time>2013-09-29T03:30:29Z</time>
            </trkpt>
            <trkpt lon="99.522653" lat="14.335960">
                <ele>114.100000</ele>
                <time>2013-09-29T03:30:42Z</time>
            </trkpt>
            <trkpt lon="99.523036" lat="14.336033">
                <ele>114.500000</ele>
                <time>2013-09-29T03:30:51Z</time>
            </trkpt>
            <trkpt lon="99.524041" lat="14.337096">
                <ele>117.900000</ele>
                <time>2013-09-29T03:31:27Z</time>
            </trkpt>
            <trkpt lon="99.524715" lat="14.338108">
                <ele>122.700000</ele>
                <time>2013-09-29T03:31:58Z</time>
            </trkpt>
            <trkpt lon="99.526070" lat="14.339195">
                <ele>126.600000</ele>
                <time>2013-09-29T03:32:40Z</time>
            </trkpt>
            <trkpt lon="99.526454" lat="14.340350">
                <ele>132.300000</ele>
                <time>2013-09-29T03:33:18Z</time>
            </trkpt>
            <trkpt lon="99.529444" lat="14.340833">
                <ele>147.700000</ele>
                <time>2013-09-29T03:35:33Z</time>
            </trkpt>
            <trkpt lon="99.529558" lat="14.340858">
                <ele>146.300000</ele>
                <time>2013-09-29T03:35:36Z</time>
            </trkpt>
            <trkpt lon="99.530626" lat="14.341557">
                <ele>160.200000</ele>
                <time>2013-09-29T03:36:50Z</time>
            </trkpt>
            <trkpt lon="99.531889" lat="14.342114">
                <ele>158.300000</ele>
                <time>2013-09-29T03:38:34Z</time>
            </trkpt>
            <trkpt lon="99.535271" lat="14.341662">
                <ele>152.500000</ele>
                <time>2013-09-29T03:38:53Z</time>
            </trkpt>
            <trkpt lon="99.536066" lat="14.341800">
                <ele>151.100000</ele>
                <time>2013-09-29T03:38:58Z</time>
            </trkpt>
            <trkpt lon="99.536926" lat="14.342088">
                <ele>140.000000</ele>
                <time>2013-09-29T03:57:03Z</time>
            </trkpt>
            <trkpt lon="99.537258" lat="14.342781">
                <ele>136.200000</ele>
                <time>2013-09-29T03:57:23Z</time>
            </trkpt>
            <trkpt lon="99.537023" lat="14.343330">
                <ele>133.800000</ele>
                <time>2013-09-29T03:57:45Z</time>
            </trkpt>
            <trkpt lon="99.536529" lat="14.343833">
                <ele>133.300000</ele>
                <time>2013-09-29T03:59:06Z</time>
            </trkpt>
            <trkpt lon="99.537281" lat="14.344072">
                <ele>136.600000</ele>
                <time>2013-09-29T03:59:38Z</time>
            </trkpt>
            <trkpt lon="99.537659" lat="14.344359">
                <ele>139.100000</ele>
                <time>2013-09-29T03:59:57Z</time>
            </trkpt>
            <trkpt lon="99.538951" lat="14.344715">
                <ele>139.500000</ele>
                <time>2013-09-29T04:00:30Z</time>
            </trkpt>
            <trkpt lon="99.539507" lat="14.345178">
                <ele>142.900000</ele>
                <time>2013-09-29T04:00:46Z</time>
            </trkpt>
            <trkpt lon="99.540496" lat="14.346294">
                <ele>147.700000</ele>
                <time>2013-09-29T04:01:24Z</time>
            </trkpt>
            <trkpt lon="99.541244" lat="14.346721">
                <ele>150.100000</ele>
                <time>2013-09-29T04:01:46Z</time>
            </trkpt>
            <trkpt lon="99.542206" lat="14.348222">
                <ele>160.700000</ele>
                <time>2013-09-29T04:02:56Z</time>
            </trkpt>
            <trkpt lon="99.542411" lat="14.348554">
                <ele>159.700000</ele>
                <time>2013-09-29T04:03:09Z</time>
            </trkpt>
            <trkpt lon="99.542155" lat="14.349623">
                <ele>164.500000</ele>
                <time>2013-09-29T04:03:56Z</time>
            </trkpt>
            <trkpt lon="99.542251" lat="14.350004">
                <ele>165.500000</ele>
                <time>2013-09-29T04:04:14Z</time>
            </trkpt>
            <trkpt lon="99.542053" lat="14.351413">
                <ele>175.100000</ele>
                <time>2013-09-29T04:05:23Z</time>
            </trkpt>
            <trkpt lon="99.541989" lat="14.351661">
                <ele>176.100000</ele>
                <time>2013-09-29T04:05:35Z</time>
            </trkpt>
            <trkpt lon="99.541090" lat="14.353202">
                <ele>181.800000</ele>
                <time>2013-09-29T04:07:02Z</time>
            </trkpt>
            <trkpt lon="99.541146" lat="14.353442">
                <ele>183.800000</ele>
                <time>2013-09-29T04:07:13Z</time>
            </trkpt>
            <trkpt lon="99.541185" lat="14.353819">
                <ele>180.900000</ele>
                <time>2013-09-29T04:07:26Z</time>
            </trkpt>
            <trkpt lon="99.540905" lat="14.354016">
                <ele>177.500000</ele>
                <time>2013-09-29T04:07:38Z</time>
            </trkpt>
            <trkpt lon="99.540705" lat="14.354650">
                <ele>173.700000</ele>
                <time>2013-09-29T04:07:52Z</time>
            </trkpt>
            <trkpt lon="99.540612" lat="14.354862">
                <ele>171.700000</ele>
                <time>2013-09-29T04:07:56Z</time>
            </trkpt>
            <trkpt lon="99.540128" lat="14.355040">
                <ele>166.000000</ele>
                <time>2013-09-29T04:08:05Z</time>
            </trkpt>
            <trkpt lon="99.539827" lat="14.354923">
                <ele>166.000000</ele>
                <time>2013-09-29T04:08:15Z</time>
            </trkpt>
            <trkpt lon="99.539401" lat="14.354990">
                <ele>164.500000</ele>
                <time>2013-09-29T04:08:36Z</time>
            </trkpt>
            <trkpt lon="99.539299" lat="14.355890">
                <ele>161.600000</ele>
                <time>2013-09-29T04:09:07Z</time>
            </trkpt>
            <trkpt lon="99.538537" lat="14.357303">
                <ele>154.000000</ele>
                <time>2013-09-29T04:09:34Z</time>
            </trkpt>
            <trkpt lon="99.538447" lat="14.357405">
                <ele>152.500000</ele>
                <time>2013-09-29T04:09:36Z</time>
            </trkpt>
            <trkpt lon="99.537988" lat="14.357278">
                <ele>153.500000</ele>
                <time>2013-09-29T04:09:47Z</time>
            </trkpt>
            <trkpt lon="99.537125" lat="14.357422">
                <ele>152.000000</ele>
                <time>2013-09-29T04:10:04Z</time>
            </trkpt>
            <trkpt lon="99.536862" lat="14.358154">
                <ele>146.300000</ele>
                <time>2013-09-29T04:10:20Z</time>
            </trkpt>
            <trkpt lon="99.536363" lat="14.358393">
                <ele>142.900000</ele>
                <time>2013-09-29T04:10:32Z</time>
            </trkpt>
            <trkpt lon="99.536154" lat="14.358764">
                <ele>139.500000</ele>
                <time>2013-09-29T04:10:41Z</time>
            </trkpt>
            <trkpt lon="99.534473" lat="14.358781">
                <ele>134.200000</ele>
                <time>2013-09-29T04:11:20Z</time>
            </trkpt>
            <trkpt lon="99.535037" lat="14.358767">
                <ele>136.200000</ele>
                <time>2013-09-29T04:11:52Z</time>
            </trkpt>
            <trkpt lon="99.535038" lat="14.359019">
                <ele>136.600000</ele>
                <time>2013-09-29T04:12:01Z</time>
            </trkpt>
            <trkpt lon="99.534716" lat="14.359887">
                <ele>136.600000</ele>
                <time>2013-09-29T04:12:22Z</time>
            </trkpt>
            <trkpt lon="99.534698" lat="14.360723">
                <ele>135.700000</ele>
                <time>2013-09-29T04:12:38Z</time>
            </trkpt>
            <trkpt lon="99.534707" lat="14.361242">
                <ele>134.200000</ele>
                <time>2013-09-29T04:13:09Z</time>
            </trkpt>
            <trkpt lon="99.534968" lat="14.362021">
                <ele>131.800000</ele>
                <time>2013-09-29T04:13:22Z</time>
            </trkpt>
            <trkpt lon="99.535049" lat="14.362380">
                <ele>130.400000</ele>
                <time>2013-09-29T04:13:27Z</time>
            </trkpt>
            <trkpt lon="99.535109" lat="14.364684">
                <ele>125.100000</ele>
                <time>2013-09-29T04:13:52Z</time>
            </trkpt>
            <trkpt lon="99.535337" lat="14.365510">
                <ele>123.700000</ele>
                <time>2013-09-29T04:14:02Z</time>
            </trkpt>
            <trkpt lon="99.535520" lat="14.365590">
                <ele>123.200000</ele>
                <time>2013-09-29T04:14:09Z</time>
            </trkpt>
            <trkpt lon="99.537251" lat="14.364857">
                <ele>126.600000</ele>
                <time>2013-09-29T04:15:29Z</time>
            </trkpt>
            <trkpt lon="99.538231" lat="14.364659">
                <ele>128.500000</ele>
                <time>2013-09-29T04:15:49Z</time>
            </trkpt>
            <trkpt lon="99.538381" lat="14.364624">
                <ele>128.000000</ele>
                <time>2013-09-29T04:15:53Z</time>
            </trkpt>
            <trkpt lon="99.539184" lat="14.364473">
                <ele>131.400000</ele>
                <time>2013-09-29T04:16:19Z</time>
            </trkpt>
            <trkpt lon="99.539471" lat="14.364664">
                <ele>132.300000</ele>
                <time>2013-09-29T04:16:29Z</time>
            </trkpt>
            <trkpt lon="99.539663" lat="14.365000">
                <ele>131.800000</ele>
                <time>2013-09-29T04:16:39Z</time>
            </trkpt>
            <trkpt lon="99.540630" lat="14.365005">
                <ele>134.200000</ele>
                <time>2013-09-29T04:17:03Z</time>
            </trkpt>
            <trkpt lon="99.542106" lat="14.365192">
                <ele>135.200000</ele>
                <time>2013-09-29T04:17:37Z</time>
            </trkpt>
            <trkpt lon="99.542556" lat="14.365757">
                <ele>133.800000</ele>
                <time>2013-09-29T04:17:54Z</time>
            </trkpt>
            <trkpt lon="99.543379" lat="14.365632">
                <ele>136.200000</ele>
                <time>2013-09-29T04:18:20Z</time>
            </trkpt>
            <trkpt lon="99.544049" lat="14.365726">
                <ele>135.700000</ele>
                <time>2013-09-29T04:18:42Z</time>
            </trkpt>
            <trkpt lon="99.544212" lat="14.365840">
                <ele>135.200000</ele>
                <time>2013-09-29T04:18:51Z</time>
            </trkpt>
            <trkpt lon="99.544416" lat="14.366444">
                <ele>134.200000</ele>
                <time>2013-09-29T04:19:05Z</time>
            </trkpt>
            <trkpt lon="99.544472" lat="14.366585">
                <ele>133.800000</ele>
                <time>2013-09-29T04:19:08Z</time>
            </trkpt>
            <trkpt lon="99.546266" lat="14.366642">
                <ele>131.800000</ele>
                <time>2013-09-29T04:19:48Z</time>
            </trkpt>
            <trkpt lon="99.546690" lat="14.366834">
                <ele>129.900000</ele>
                <time>2013-09-29T04:19:55Z</time>
            </trkpt>
            <trkpt lon="99.546845" lat="14.367135">
                <ele>129.900000</ele>
                <time>2013-09-29T04:20:00Z</time>
            </trkpt>
            <trkpt lon="99.547163" lat="14.370228">
                <ele>124.600000</ele>
                <time>2013-09-29T04:20:42Z</time>
            </trkpt>
            <trkpt lon="99.548806" lat="14.370113">
                <ele>122.700000</ele>
                <time>2013-09-29T04:21:09Z</time>
            </trkpt>
            <trkpt lon="99.548929" lat="14.369977">
                <ele>121.300000</ele>
                <time>2013-09-29T04:21:23Z</time>
            </trkpt>
            <trkpt lon="99.548947" lat="14.369981">
                <ele>123.200000</ele>
                <time>2013-09-29T04:37:39Z</time>
            </trkpt>
            <trkpt lon="99.548890" lat="14.370089">
                <ele>123.200000</ele>
                <time>2013-09-29T04:39:25Z</time>
            </trkpt>
            <trkpt lon="99.548599" lat="14.370129">
                <ele>123.700000</ele>
                <time>2013-09-29T04:39:35Z</time>
            </trkpt>
            <trkpt lon="99.546059" lat="14.370330">
                <ele>126.600000</ele>
                <time>2013-09-29T04:40:31Z</time>
            </trkpt>
            <trkpt lon="99.544047" lat="14.370918">
                <ele>129.000000</ele>
                <time>2013-09-29T04:41:14Z</time>
            </trkpt>
            <trkpt lon="99.541373" lat="14.371819">
                <ele>128.500000</ele>
                <time>2013-09-29T04:42:06Z</time>
            </trkpt>
            <trkpt lon="99.541072" lat="14.368909">
                <ele>126.100000</ele>
                <time>2013-09-29T04:43:28Z</time>
            </trkpt>
            <trkpt lon="99.540840" lat="14.368892">
                <ele>126.100000</ele>
                <time>2013-09-29T04:43:34Z</time>
            </trkpt>
            <trkpt lon="99.536539" lat="14.369530">
                <ele>120.300000</ele>
                <time>2013-09-29T04:44:45Z</time>
            </trkpt>
            <trkpt lon="99.536413" lat="14.369200">
                <ele>122.200000</ele>
                <time>2013-09-29T04:44:55Z</time>
            </trkpt>
            <trkpt lon="99.536321" lat="14.368373">
                <ele>122.700000</ele>
                <time>2013-09-29T04:45:09Z</time>
            </trkpt>
            <trkpt lon="99.535584" lat="14.366473">
                <ele>122.700000</ele>
                <time>2013-09-29T04:45:44Z</time>
            </trkpt>
            <trkpt lon="99.535406" lat="14.366339">
                <ele>123.200000</ele>
                <time>2013-09-29T04:45:49Z</time>
            </trkpt>
            <trkpt lon="99.534963" lat="14.366530">
                <ele>122.700000</ele>
                <time>2013-09-29T04:45:59Z</time>
            </trkpt>
            <trkpt lon="99.534615" lat="14.366442">
                <ele>123.200000</ele>
                <time>2013-09-29T04:46:08Z</time>
            </trkpt>
            <trkpt lon="99.533722" lat="14.364126">
                <ele>130.900000</ele>
                <time>2013-09-29T04:47:31Z</time>
            </trkpt>
            <trkpt lon="99.533580" lat="14.363563">
                <ele>130.400000</ele>
                <time>2013-09-29T04:47:47Z</time>
            </trkpt>
            <trkpt lon="99.532904" lat="14.362087">
                <ele>135.200000</ele>
                <time>2013-09-29T04:48:40Z</time>
            </trkpt>
            <trkpt lon="99.532736" lat="14.361295">
                <ele>136.600000</ele>
                <time>2013-09-29T04:49:06Z</time>
            </trkpt>
            <trkpt lon="99.532185" lat="14.360542">
                <ele>141.000000</ele>
                <time>2013-09-29T04:49:49Z</time>
            </trkpt>
            <trkpt lon="99.531413" lat="14.360642">
                <ele>152.500000</ele>
                <time>2013-09-29T04:51:33Z</time>
            </trkpt>
            <trkpt lon="99.531107" lat="14.360850">
                <ele>158.300000</ele>
                <time>2013-09-29T04:52:28Z</time>
            </trkpt>
            <trkpt lon="99.531017" lat="14.360903">
                <ele>159.200000</ele>
                <time>2013-09-29T04:52:40Z</time>
            </trkpt>
            <trkpt lon="99.530711" lat="14.361666">
                <ele>153.000000</ele>
                <time>2013-09-29T04:53:12Z</time>
            </trkpt>
            <trkpt lon="99.528604" lat="14.362178">
                <ele>137.100000</ele>
                <time>2013-09-29T04:53:58Z</time>
            </trkpt>
            <trkpt lon="99.528348" lat="14.362620">
                <ele>135.700000</ele>
                <time>2013-09-29T04:54:12Z</time>
            </trkpt>
            <trkpt lon="99.527428" lat="14.363126">
                <ele>135.700000</ele>
                <time>2013-09-29T04:54:38Z</time>
            </trkpt>
            <trkpt lon="99.526613" lat="14.363124">
                <ele>129.400000</ele>
                <time>2013-09-29T04:54:58Z</time>
            </trkpt>
            <trkpt lon="99.526222" lat="14.363393">
                <ele>132.300000</ele>
                <time>2013-09-29T05:15:57Z</time>
            </trkpt>
            <trkpt lon="99.525903" lat="14.363604">
                <ele>130.900000</ele>
                <time>2013-09-29T05:17:09Z</time>
            </trkpt>
            <trkpt lon="99.525368" lat="14.364069">
                <ele>131.800000</ele>
                <time>2013-09-29T05:17:27Z</time>
            </trkpt>
            <trkpt lon="99.524546" lat="14.364217">
                <ele>127.500000</ele>
                <time>2013-09-29T05:17:44Z</time>
            </trkpt>
            <trkpt lon="99.523994" lat="14.364528">
                <ele>124.200000</ele>
                <time>2013-09-29T05:17:55Z</time>
            </trkpt>
            <trkpt lon="99.523161" lat="14.365402">
                <ele>119.800000</ele>
                <time>2013-09-29T05:18:13Z</time>
            </trkpt>
            <trkpt lon="99.522444" lat="14.366570">
                <ele>117.400000</ele>
                <time>2013-09-29T05:18:37Z</time>
            </trkpt>
            <trkpt lon="99.522429" lat="14.366287">
                <ele>116.500000</ele>
                <time>2013-09-29T05:18:47Z</time>
            </trkpt>
            <trkpt lon="99.521794" lat="14.365611">
                <ele>118.900000</ele>
                <time>2013-09-29T05:19:07Z</time>
            </trkpt>
            <trkpt lon="99.521654" lat="14.365213">
                <ele>121.700000</ele>
                <time>2013-09-29T05:19:20Z</time>
            </trkpt>
            <trkpt lon="99.521826" lat="14.364949">
                <ele>122.200000</ele>
                <time>2013-09-29T05:19:31Z</time>
            </trkpt>
            <trkpt lon="99.521884" lat="14.364654">
                <ele>122.700000</ele>
                <time>2013-09-29T05:19:39Z</time>
            </trkpt>
            <trkpt lon="99.521665" lat="14.364047">
                <ele>124.200000</ele>
                <time>2013-09-29T05:19:56Z</time>
            </trkpt>
            <trkpt lon="99.521458" lat="14.363630">
                <ele>124.200000</ele>
                <time>2013-09-29T05:20:09Z</time>
            </trkpt>
            <trkpt lon="99.521076" lat="14.363629">
                <ele>125.100000</ele>
                <time>2013-09-29T05:20:20Z</time>
            </trkpt>
            <trkpt lon="99.520475" lat="14.363556">
                <ele>121.700000</ele>
                <time>2013-09-29T05:20:35Z</time>
            </trkpt>
            <trkpt lon="99.519536" lat="14.361718">
                <ele>113.600000</ele>
                <time>2013-09-29T05:21:06Z</time>
            </trkpt>
            <trkpt lon="99.519231" lat="14.361551">
                <ele>112.600000</ele>
                <time>2013-09-29T05:21:13Z</time>
            </trkpt>
            <trkpt lon="99.518872" lat="14.361650">
                <ele>112.100000</ele>
                <time>2013-09-29T05:21:19Z</time>
            </trkpt>
            <trkpt lon="99.518750" lat="14.361685">
                <ele>111.700000</ele>
                <time>2013-09-29T05:21:21Z</time>
            </trkpt>
            <trkpt lon="99.517798" lat="14.360999">
                <ele>107.800000</ele>
                <time>2013-09-29T05:21:40Z</time>
            </trkpt>
            <trkpt lon="99.517152" lat="14.360885">
                <ele>105.900000</ele>
                <time>2013-09-29T05:21:53Z</time>
            </trkpt>
            <trkpt lon="99.516104" lat="14.359123">
                <ele>103.500000</ele>
                <time>2013-09-29T05:22:32Z</time>
            </trkpt>
            <trkpt lon="99.515689" lat="14.358980">
                <ele>102.500000</ele>
                <time>2013-09-29T05:22:41Z</time>
            </trkpt>
            <trkpt lon="99.515199" lat="14.358964">
                <ele>100.600000</ele>
                <time>2013-09-29T05:22:53Z</time>
            </trkpt>
            <trkpt lon="99.515114" lat="14.358507">
                <ele>102.000000</ele>
                <time>2013-09-29T05:23:06Z</time>
            </trkpt>
            <trkpt lon="99.515524" lat="14.357298">
                <ele>105.900000</ele>
                <time>2013-09-29T05:24:02Z</time>
            </trkpt>
            <trkpt lon="99.515428" lat="14.357143">
                <ele>104.900000</ele>
                <time>2013-09-29T05:24:14Z</time>
            </trkpt>
            <trkpt lon="99.514989" lat="14.357144">
                <ele>101.600000</ele>
                <time>2013-09-29T05:24:24Z</time>
            </trkpt>
            <trkpt lon="99.514084" lat="14.356748">
                <ele>99.600000</ele>
                <time>2013-09-29T05:24:40Z</time>
            </trkpt>
            <trkpt lon="99.513750" lat="14.356622">
                <ele>98.200000</ele>
                <time>2013-09-29T05:24:47Z</time>
            </trkpt>
            <trkpt lon="99.513603" lat="14.356055">
                <ele>101.600000</ele>
                <time>2013-09-29T05:25:04Z</time>
            </trkpt>
            <trkpt lon="99.512945" lat="14.355516">
                <ele>96.800000</ele>
                <time>2013-09-29T05:25:19Z</time>
            </trkpt>
            <trkpt lon="99.512822" lat="14.354456">
                <ele>101.100000</ele>
                <time>2013-09-29T05:25:49Z</time>
            </trkpt>
            <trkpt lon="99.512668" lat="14.353464">
                <ele>99.200000</ele>
                <time>2013-09-29T05:26:10Z</time>
            </trkpt>
            <trkpt lon="99.512770" lat="14.352871">
                <ele>99.600000</ele>
                <time>2013-09-29T05:26:28Z</time>
            </trkpt>
            <trkpt lon="99.512541" lat="14.352796">
                <ele>100.100000</ele>
                <time>2013-09-29T05:26:36Z</time>
            </trkpt>
            <trkpt lon="99.512449" lat="14.352299">
                <ele>102.500000</ele>
                <time>2013-09-29T05:26:51Z</time>
            </trkpt>
            <trkpt lon="99.512321" lat="14.352258">
                <ele>102.500000</ele>
                <time>2013-09-29T05:26:56Z</time>
            </trkpt>
            <trkpt lon="99.510877" lat="14.352478">
                <ele>98.200000</ele>
                <time>2013-09-29T05:27:23Z</time>
            </trkpt>
            <trkpt lon="99.510516" lat="14.352817">
                <ele>96.800000</ele>
                <time>2013-09-29T05:27:32Z</time>
            </trkpt>
            <trkpt lon="99.510460" lat="14.353384">
                <ele>95.300000</ele>
                <time>2013-09-29T05:27:42Z</time>
            </trkpt>
            <trkpt lon="99.509910" lat="14.353435">
                <ele>94.800000</ele>
                <time>2013-09-29T05:27:52Z</time>
            </trkpt>
            <trkpt lon="99.509698" lat="14.353384">
                <ele>93.900000</ele>
                <time>2013-09-29T05:28:03Z</time>
            </trkpt>
            <trkpt lon="99.509499" lat="14.353147">
                <ele>94.800000</ele>
                <time>2013-09-29T05:28:16Z</time>
            </trkpt>
            <trkpt lon="99.509137" lat="14.352505">
                <ele>96.300000</ele>
                <time>2013-09-29T05:28:32Z</time>
            </trkpt>
            <trkpt lon="99.508816" lat="14.352381">
                <ele>96.800000</ele>
                <time>2013-09-29T05:28:40Z</time>
            </trkpt>
            <trkpt lon="99.508722" lat="14.352304">
                <ele>96.300000</ele>
                <time>2013-09-29T05:28:45Z</time>
            </trkpt>
            <trkpt lon="99.507819" lat="14.352568">
                <ele>95.800000</ele>
                <time>2013-09-29T05:29:05Z</time>
            </trkpt>
            <trkpt lon="99.506918" lat="14.352414">
                <ele>96.300000</ele>
                <time>2013-09-29T05:29:20Z</time>
            </trkpt>
            <trkpt lon="99.506454" lat="14.352628">
                <ele>96.300000</ele>
                <time>2013-09-29T05:29:28Z</time>
            </trkpt>
            <trkpt lon="99.505740" lat="14.353931">
                <ele>96.300000</ele>
                <time>2013-09-29T05:29:51Z</time>
            </trkpt>
            <trkpt lon="99.505382" lat="14.354062">
                <ele>96.300000</ele>
                <time>2013-09-29T05:29:58Z</time>
            </trkpt>
            <trkpt lon="99.503155" lat="14.353343">
                <ele>95.800000</ele>
                <time>2013-09-29T05:30:34Z</time>
            </trkpt>
            <trkpt lon="99.502980" lat="14.353092">
                <ele>96.300000</ele>
                <time>2013-09-29T05:30:39Z</time>
            </trkpt>
            <trkpt lon="99.503004" lat="14.352344">
                <ele>97.700000</ele>
                <time>2013-09-29T05:30:51Z</time>
            </trkpt>
            <trkpt lon="99.502692" lat="14.351267">
                <ele>96.800000</ele>
                <time>2013-09-29T05:31:09Z</time>
            </trkpt>
            <trkpt lon="99.502460" lat="14.351050">
                <ele>96.800000</ele>
                <time>2013-09-29T05:31:14Z</time>
            </trkpt>
            <trkpt lon="99.501245" lat="14.350408">
                <ele>96.800000</ele>
                <time>2013-09-29T05:31:37Z</time>
            </trkpt>
            <trkpt lon="99.499846" lat="14.350098">
                <ele>96.300000</ele>
                <time>2013-09-29T05:31:59Z</time>
            </trkpt>
            <trkpt lon="99.499376" lat="14.350141">
                <ele>96.800000</ele>
                <time>2013-09-29T05:32:07Z</time>
            </trkpt>
            <trkpt lon="99.498594" lat="14.351181">
                <ele>96.300000</ele>
                <time>2013-09-29T05:32:29Z</time>
            </trkpt>
            <trkpt lon="99.497579" lat="14.351966">
                <ele>96.300000</ele>
                <time>2013-09-29T05:32:51Z</time>
            </trkpt>
            <trkpt lon="99.497471" lat="14.352262">
                <ele>96.300000</ele>
                <time>2013-09-29T05:32:56Z</time>
            </trkpt>
            <trkpt lon="99.497559" lat="14.352708">
                <ele>97.200000</ele>
                <time>2013-09-29T05:33:04Z</time>
            </trkpt>
            <trkpt lon="99.497997" lat="14.353497">
                <ele>96.300000</ele>
                <time>2013-09-29T05:33:19Z</time>
            </trkpt>
            <trkpt lon="99.498338" lat="14.353448">
                <ele>96.300000</ele>
                <time>2013-09-29T05:36:00Z</time>
            </trkpt>
            <trkpt lon="99.498416" lat="14.354117">
                <ele>96.800000</ele>
                <time>2013-09-29T05:36:57Z</time>
            </trkpt>
            <trkpt lon="99.497894" lat="14.353891">
                <ele>98.700000</ele>
                <time>2013-09-29T05:37:20Z</time>
            </trkpt>
            <trkpt lon="99.497268" lat="14.354352">
                <ele>99.600000</ele>
                <time>2013-09-29T05:37:44Z</time>
            </trkpt>
            <trkpt lon="99.497113" lat="14.354617">
                <ele>98.700000</ele>
                <time>2013-09-29T05:37:51Z</time>
            </trkpt>
            <trkpt lon="99.497066" lat="14.355262">
                <ele>96.300000</ele>
                <time>2013-09-29T05:38:02Z</time>
            </trkpt>
            <trkpt lon="99.497167" lat="14.356014">
                <ele>96.800000</ele>
                <time>2013-09-29T05:38:16Z</time>
            </trkpt>
            <trkpt lon="99.497719" lat="14.357186">
                <ele>98.200000</ele>
                <time>2013-09-29T05:38:41Z</time>
            </trkpt>
            <trkpt lon="99.498669" lat="14.357999">
                <ele>97.200000</ele>
                <time>2013-09-29T05:39:06Z</time>
            </trkpt>
            <trkpt lon="99.499137" lat="14.358159">
                <ele>96.300000</ele>
                <time>2013-09-29T05:39:15Z</time>
            </trkpt>
            <trkpt lon="99.500704" lat="14.357525">
                <ele>95.300000</ele>
                <time>2013-09-29T05:39:46Z</time>
            </trkpt>
            <trkpt lon="99.501233" lat="14.356367">
                <ele>95.800000</ele>
                <time>2013-09-29T05:40:10Z</time>
            </trkpt>
            <trkpt lon="99.501112" lat="14.356004">
                <ele>95.300000</ele>
                <time>2013-09-29T05:40:18Z</time>
            </trkpt>
            <trkpt lon="99.500806" lat="14.355843">
                <ele>94.800000</ele>
                <time>2013-09-29T05:40:25Z</time>
            </trkpt>
            <trkpt lon="99.500644" lat="14.355577">
                <ele>94.800000</ele>
                <time>2013-09-29T05:40:32Z</time>
            </trkpt>
            <trkpt lon="99.500696" lat="14.355481">
                <ele>94.400000</ele>
                <time>2013-09-29T05:40:36Z</time>
            </trkpt>
        </trkseg>
    </trk>
</gpx>